Time;durP1;ratioP1;P1;durP2;ratioP2;P2;SDS_P1;SDS_P2;PMS_P1;PMS_P2;Temp;Humidity;BMP_temperature;BMP_pressure;BME280_temperature;BME280_humidity;BME280_pressure;Samples;Min_cycle;Max_cycle;Signal;HPM_P1;HPM_P2
2022/05/16 00:00:43;;;;;;;10.10;2.53;;;;;;;16.91;48.20;101287.09;5040470;28;20092;-68
2022/05/16 00:03:10;;;;;;;7.18;2.67;;;;;;;16.87;48.55;101286.38;5034528;28;20038;-69
2022/05/16 00:05:37;;;;;;;5.18;2.58;;;;;;;16.84;48.33;101286.53;5045455;28;20053;-65
2022/05/16 00:08:06;;;;;;;6.72;2.60;;;;;;;16.82;48.38;101283.06;5036728;28;20070;-65
2022/05/16 00:10:36;;;;;;;5.03;2.47;;;;;;;16.77;48.59;101280.63;5042646;28;20627;-66
2022/05/16 00:13:03;;;;;;;9.32;2.65;;;;;;;16.72;48.80;101279.16;5041351;28;20129;-65
2022/05/16 00:15:31;;;;;;;8.30;2.63;;;;;;;16.68;48.83;101277.59;5045795;28;20116;-64
2022/05/16 00:17:58;;;;;;;8.98;3.05;;;;;;;16.64;49.19;101276.84;5037719;28;20046;-64
2022/05/16 00:20:27;;;;;;;7.07;2.78;;;;;;;16.59;49.28;101269.09;5035770;28;20037;-67
2022/05/16 00:22:54;;;;;;;8.85;2.80;;;;;;;16.56;49.19;101268.38;5032893;28;20157;-67
2022/05/16 00:25:22;;;;;;;8.90;2.90;;;;;;;16.51;49.62;101263.28;5037151;28;20724;-67
2022/05/16 00:27:49;;;;;;;8.63;2.67;;;;;;;16.48;49.95;101260.78;5038294;28;20096;-66
2022/05/16 00:30:20;;;;;;;7.00;2.88;;;;;;;16.43;50.30;101254.81;5036462;28;20042;-66
2022/05/16 00:32:48;;;;;;;8.90;2.70;;;;;;;16.37;50.08;101253.31;5048507;28;20088;-66
2022/05/16 00:35:19;;;;;;;12.07;3.35;;;;;;;16.34;50.67;101253.44;5034101;28;20038;-67
2022/05/16 00:37:49;;;;;;;8.65;2.83;;;;;;;16.28;50.41;101251.94;5037267;28;20054;-66
2022/05/16 00:40:18;;;;;;;9.15;3.30;;;;;;;16.26;50.56;101248.53;5041275;28;20049;-66
2022/05/16 00:42:47;;;;;;;8.68;3.30;;;;;;;16.23;51.12;101250.44;5038075;28;20506;-66
2022/05/16 00:45:17;;;;;;;10.48;4.07;;;;;;;16.20;51.12;101251.47;5045373;28;20077;-66
2022/05/16 00:47:47;;;;;;;11.50;4.70;;;;;;;16.17;51.29;101240.97;5042788;28;20042;-68
2022/05/16 00:50:15;;;;;;;9.60;4.05;;;;;;;16.12;51.40;101241.19;5047849;28;20045;-68
2022/05/16 00:52:48;;;;;;;13.00;4.47;;;;;;;16.12;51.34;101242.97;5039676;28;20126;-67
2022/05/16 00:55:24;;;;;;;11.05;4.15;;;;;;;16.08;51.65;101236.94;5039475;28;20081;-66
2022/05/16 00:57:56;;;;;;;13.00;4.18;;;;;;;16.05;51.57;101233.59;5039613;28;20034;-68
2022/05/16 01:00:35;;;;;;;10.20;4.10;;;;;;;16.02;52.37;101233.72;5048205;28;20034;-67
2022/05/16 01:06:22;;;;;;;10.80;3.67;;;;;;;15.96;52.31;101226.88;5042391;28;20083;-69
2022/05/16 01:08:51;;;;;;;7.82;3.50;;;;;;;15.94;52.33;101228.75;5036095;28;20038;-69
2022/05/16 01:11:19;;;;;;;10.07;4.07;;;;;;;15.92;52.46;101227.97;5039562;28;20088;-66
2022/05/16 01:13:46;;;;;;;10.48;3.75;;;;;;;15.90;52.60;101228.03;5039179;28;20122;-66
2022/05/16 01:16:14;;;;;;;9.30;3.70;;;;;;;15.87;53.25;101224.66;5033147;28;20104;-66
2022/05/16 01:18:41;;;;;;;7.35;3.40;;;;;;;15.82;53.30;101220.38;5043593;28;20084;-66
2022/05/16 01:21:24;;;;;;;11.68;4.07;;;;;;;15.80;53.50;101216.94;5037130;28;20535;-65
2022/05/16 01:24:05;;;;;;;11.70;3.50;;;;;;;15.77;53.59;101225.06;5037545;28;20093;-65
2022/05/16 01:26:34;;;;;;;10.73;3.75;;;;;;;15.77;53.37;101234.84;5032918;28;20050;-65
2022/05/16 01:29:05;;;;;;;8.43;3.80;;;;;;;15.72;53.50;101232.38;5038038;28;20585;-66
2022/05/16 01:31:34;;;;;;;9.50;3.95;;;;;;;15.70;53.15;101231.59;5043112;28;20111;-66
2022/05/16 01:34:02;;;;;;;11.57;3.83;;;;;;;15.68;53.58;101230.78;5035755;28;20145;-66
2022/05/16 01:36:33;;;;;;;12.27;3.88;;;;;;;15.66;53.71;101227.34;5041829;28;20488;-65
2022/05/16 01:39:00;;;;;;;11.35;3.70;;;;;;;15.64;53.92;101235.38;5036829;28;20042;-65
2022/05/16 01:41:27;;;;;;;8.90;3.67;;;;;;;15.62;54.27;101223.97;5036478;28;20120;-65
2022/05/16 01:44:00;;;;;;;9.18;3.63;;;;;;;15.62;54.11;101228.41;5035927;28;20104;-66
2022/05/16 01:46:37;;;;;;;8.07;3.42;;;;;;;15.60;54.24;101219.66;5038555;28;20045;-64
2022/05/16 01:49:08;;;;;;;9.00;3.28;;;;;;;15.57;54.51;101217.97;5045744;28;20049;-67
2022/05/16 01:51:36;;;;;;;9.05;3.47;;;;;;;15.55;54.67;101219.88;5038255;28;20038;-66
2022/05/16 01:54:04;;;;;;;10.60;3.60;;;;;;;15.53;54.93;101209.28;5041532;28;20083;-67
2022/05/16 01:56:34;;;;;;;9.07;3.38;;;;;;;15.50;55.26;101208.56;5043908;28;20500;-69
2022/05/16 01:59:04;;;;;;;11.88;3.65;;;;;;;15.47;55.03;101203.38;5048592;28;20052;-68
2022/05/16 02:01:33;;;;;;;10.10;3.90;;;;;;;15.45;55.44;101200.81;5040554;28;20077;-68
2022/05/16 02:04:00;;;;;;;9.50;3.67;;;;;;;15.44;55.58;101198.22;5037375;28;20038;-69
2022/05/16 02:06:27;;;;;;;9.95;3.50;;;;;;;15.43;55.73;101197.34;5038584;28;20078;-68
2022/05/16 02:08:55;;;;;;;10.85;3.45;;;;;;;15.43;55.84;101196.50;5039742;28;20463;-68
2022/05/16 02:11:22;;;;;;;11.13;3.60;;;;;;;15.42;55.97;101194.78;5037255;28;20068;-70
2022/05/16 02:13:49;;;;;;;10.60;3.95;;;;;;;15.40;56.05;101192.19;5034933;28;20072;-65
2022/05/16 02:16:16;;;;;;;10.80;4.10;;;;;;;15.40;56.10;101178.03;5037368;28;20038;-67
2022/05/16 02:18:44;;;;;;;10.00;3.67;;;;;;;15.38;56.09;101176.31;5031527;28;20861;-67
2022/05/16 02:26:49;;;;;;;9.43;4.03;;;;;;;15.34;56.59;101173.84;5031396;28;20045;-68
2022/05/16 02:29:18;;;;;;;9.77;3.65;;;;;;;15.32;56.33;101173.94;5035991;28;20765;-67
2022/05/16 02:31:46;;;;;;;12.63;4.20;;;;;;;15.29;56.25;101171.41;5032600;28;20042;-67
2022/05/16 02:34:15;;;;;;;18.60;4.22;;;;;;;15.30;56.47;101170.47;5033794;28;20049;-66
2022/05/16 02:36:42;;;;;;;10.68;3.47;;;;;;;15.28;56.57;101168.84;5034507;28;20124;-67
2022/05/16 02:39:16;;;;;;;11.82;4.03;;;;;;;15.25;56.62;101166.31;5042809;28;20046;-68
2022/05/16 02:41:43;;;;;;;12.13;4.05;;;;;;;15.21;56.65;101169.09;5031658;28;20496;-67
2022/05/16 02:44:10;;;;;;;10.48;4.18;;;;;;;15.19;56.83;101172.75;5039457;28;20042;-68
2022/05/16 02:46:38;;;;;;;8.90;4.05;;;;;;;15.16;57.43;101176.41;5035635;28;20042;-68
2022/05/16 02:49:06;;;;;;;9.65;3.85;;;;;;;15.13;56.77;101173.03;5037984;28;20061;-67
2022/05/16 02:51:34;;;;;;;8.18;3.80;;;;;;;15.07;56.70;101179.47;5033780;28;20773;-69
2022/05/16 02:54:02;;;;;;;12.43;3.70;;;;;;;15.04;57.19;101188.44;5037174;28;20034;-66
2022/05/16 02:56:30;;;;;;;10.10;3.78;;;;;;;14.99;57.23;101174.50;5034847;28;20144;-66
2022/05/16 02:58:58;;;;;;;9.52;4.20;;;;;;;14.95;57.35;101170.28;5031378;28;20044;-66
2022/05/16 03:01:27;;;;;;;9.52;4.18;;;;;;;14.93;57.79;101176.56;5032178;28;20038;-66
2022/05/16 03:03:54;;;;;;;9.75;3.63;;;;;;;14.88;57.66;101180.28;5042326;28;20499;-68
2022/05/16 03:06:22;;;;;;;7.78;3.45;;;;;;;14.85;58.05;101166.28;5037205;28;20060;-68
2022/05/16 03:08:49;;;;;;;9.07;3.80;;;;;;;14.80;58.24;101157.66;5033568;28;20065;-66
2022/05/16 03:11:16;;;;;;;10.82;4.30;;;;;;;14.76;58.55;101159.56;5039197;28;20041;-67
2022/05/16 03:13:43;;;;;;;12.00;4.18;;;;;;;14.72;58.54;101155.31;5043763;28;20140;-66
2022/05/16 03:16:10;;;;;;;9.82;3.72;;;;;;;14.69;59.50;101151.00;5037961;28;20051;-67
2022/05/16 03:18:37;;;;;;;7.85;4.10;;;;;;;14.67;58.81;101142.25;5031237;28;20475;-65
2022/05/16 03:21:04;;;;;;;10.75;4.10;;;;;;;14.66;59.28;101151.09;5034782;28;20077;-68
2022/05/16 03:23:32;;;;;;;9.32;3.95;;;;;;;14.64;59.40;101152.97;5040726;28;20050;-67
2022/05/16 03:25:59;;;;;;;10.32;3.92;;;;;;;14.65;59.07;101146.72;5040739;28;20717;-68
2022/05/16 03:28:27;;;;;;;9.35;3.70;;;;;;;14.64;59.14;101146.78;5037415;28;20109;-67
2022/05/16 03:30:57;;;;;;;10.80;4.00;;;;;;;14.64;59.54;101147.66;5040092;28;20092;-67
2022/05/16 03:33:25;;;;;;;12.25;4.32;;;;;;;14.63;59.43;101145.06;5049984;28;20046;-68
2022/05/16 03:35:55;;;;;;;11.63;4.28;;;;;;;14.62;59.68;101151.28;5036024;28;20038;-68
2022/05/16 03:41:13;;;;;;;8.73;4.30;;;;;;;14.55;59.81;101142.75;5046436;28;20053;-67
2022/05/16 03:43:41;;;;;;;9.38;4.55;;;;;;;14.51;59.98;101147.28;5036378;28;20104;-68
2022/05/16 03:46:09;;;;;;;14.10;4.80;;;;;;;14.50;59.98;101145.56;5037435;28;20062;-69
2022/05/16 03:48:38;;;;;;;12.60;4.60;;;;;;;14.50;60.45;101142.91;5045635;28;20048;-69
2022/05/16 03:51:09;;;;;;;7.25;4.25;;;;;;;14.52;60.35;101145.53;5034133;28;20045;-69
2022/05/16 03:53:42;;;;;;;13.23;4.88;;;;;;;14.54;60.05;101146.34;5037249;28;20042;-68
2022/05/16 03:56:09;;;;;;;15.95;4.80;;;;;;;14.54;59.91;101147.19;5033224;28;20096;-69
2022/05/16 03:58:36;;;;;;;8.70;4.40;;;;;;;14.55;60.05;101145.41;5037837;28;20037;-68
2022/05/16 04:01:03;;;;;;;9.27;4.40;;;;;;;14.57;60.37;101148.84;5036312;28;20792;-68
2022/05/16 04:03:31;;;;;;;12.52;4.85;;;;;;;14.58;60.45;101143.47;5044714;28;20514;-68
2022/05/16 04:05:58;;;;;;;11.35;4.70;;;;;;;14.60;60.58;101138.09;5043075;28;20046;-68
2022/05/16 04:08:26;;;;;;;11.18;4.63;;;;;;;14.61;60.63;101139.81;5040852;28;20111;-69
2022/05/16 04:10:53;;;;;;;10.35;4.70;;;;;;;14.60;60.48;101140.75;5033256;28;20046;-68
2022/05/16 04:13:45;;;;;;;10.50;4.90;;;;;;;14.60;60.52;101151.38;5043061;28;20050;-68
2022/05/16 04:16:17;;;;;;;9.98;4.95;;;;;;;14.60;60.74;101143.41;5044550;28;20038;-69
2022/05/16 04:18:48;;;;;;;10.18;4.20;;;;;;;14.62;61.21;101151.28;5063171;28;20041;-69
2022/05/16 04:21:16;;;;;;;13.38;5.00;;;;;;;14.66;60.51;101151.09;5038057;28;20129;-66
2022/05/16 04:23:43;;;;;;;10.77;4.78;;;;;;;14.68;60.63;101151.09;5038982;28;20491;-67
2022/05/16 04:26:10;;;;;;;10.65;4.70;;;;;;;14.74;60.55;101148.16;5039440;28;20103;-67
2022/05/16 04:28:37;;;;;;;12.18;4.82;;;;;;;14.80;60.17;101145.25;5038225;28;20045;-67
2022/05/16 04:31:05;;;;;;;11.63;5.05;;;;;;;14.88;59.99;101145.78;5045768;28;20045;-66
2022/05/16 04:33:34;;;;;;;11.93;4.45;;;;;;;14.94;60.43;101146.41;5045653;28;20116;-68
2022/05/16 04:36:02;;;;;;;10.48;4.85;;;;;;;14.99;60.26;101147.09;5037859;28;20053;-69
2022/05/16 04:38:31;;;;;;;12.75;4.60;;;;;;;15.04;60.16;101143.31;5048251;28;20071;-69
2022/05/16 04:43:45;;;;;;;7.68;4.15;;;;;;;15.21;60.14;101142.53;5056797;28;20046;-68
2022/05/16 04:46:12;;;;;;;15.07;5.05;;;;;;;15.32;60.34;101136.75;5049587;28;20049;-70
2022/05/16 04:48:40;;;;;;;15.63;4.68;;;;;;;15.52;60.38;101142.94;5044094;28;20041;-69
2022/05/16 04:51:07;;;;;;;11.73;4.78;;;;;;;15.99;59.46;101144.31;5038444;28;20046;-69
2022/05/16 04:53:34;;;;;;;12.38;4.88;;;;;;;16.43;58.12;101138.59;5039852;28;20046;-70
2022/05/16 04:56:01;;;;;;;10.27;4.40;;;;;;;16.68;57.52;101137.34;5033935;28;20096;-69
2022/05/16 04:58:32;;;;;;;12.45;4.90;;;;;;;16.80;56.92;101129.69;5041474;28;20156;-68
2022/05/16 05:01:04;;;;;;;12.30;4.72;;;;;;;16.96;56.65;101132.44;5034382;28;20117;-69
2022/05/16 05:03:31;;;;;;;9.20;4.38;;;;;;;17.26;55.87;101137.94;5043388;28;20046;-69
2022/05/16 05:05:58;;;;;;;9.73;4.05;;;;;;;17.24;55.86;101145.16;5042680;28;20111;-69
2022/05/16 05:08:26;;;;;;;10.75;4.97;;;;;;;17.29;55.75;101153.75;5041551;28;20508;-69
2022/05/16 05:16:26;;;;;;;8.43;4.13;;;;;;;18.06;54.25;101156.69;5033287;28;20049;-69
2022/05/16 05:18:53;;;;;;;10.88;4.20;;;;;;;18.30;53.98;101154.41;5039136;28;20069;-68
2022/05/16 05:21:20;;;;;;;10.40;4.78;;;;;;;18.78;53.38;101158.75;5036171;28;20049;-69
2022/05/16 05:23:47;;;;;;;15.02;4.60;;;;;;;19.42;51.89;101157.63;5035605;28;20070;-70
2022/05/16 05:26:16;;;;;;;18.45;5.00;;;;;;;19.55;51.53;101158.53;5043641;28;20087;-69
2022/05/16 05:28:43;;;;;;;11.35;4.65;;;;;;;19.34;51.14;101164.28;5037577;28;20799;-70
2022/05/16 05:31:15;;;;;;;11.63;4.88;;;;;;;19.12;51.12;101154.06;5032458;28;20105;-69
2022/05/16 05:33:43;;;;;;;8.43;4.20;;;;;;;19.61;50.58;101151.94;5041815;28;20408;-70
2022/05/16 05:36:11;;;;;;;10.10;4.45;;;;;;;20.70;49.27;101156.47;5035629;28;20129;-69
2022/05/16 05:38:38;;;;;;;11.68;4.85;;;;;;;20.29;49.21;101155.63;5033234;28;20053;-70
2022/05/16 05:41:08;;;;;;;9.18;4.90;;;;;;;19.89;49.46;101150.22;5033632;28;20048;-69
2022/05/16 05:43:37;;;;;;;12.15;4.20;;;;;;;19.55;50.16;101148.72;5039634;28;20042;-69
2022/05/16 05:46:05;;;;;;;9.32;4.38;;;;;;;19.51;50.22;101146.34;5033032;28;20100;-70
2022/05/16 05:48:33;;;;;;;9.02;4.43;;;;;;;19.71;49.90;101145.94;5042030;28;20049;-69
2022/05/16 05:51:00;;;;;;;12.48;4.75;;;;;;;19.84;49.95;101148.66;5042351;28;20555;-69
2022/05/16 05:53:28;;;;;;;8.25;4.10;;;;;;;21.17;48.02;101146.97;5030228;28;20045;-69
2022/05/16 05:55:55;;;;;;;11.18;4.88;;;;;;;22.62;45.60;101138.28;5037365;28;20926;-69
2022/05/16 05:58:22;;;;;;;11.52;4.13;;;;;;;23.52;43.34;101133.97;5045276;28;20490;-69
2022/05/16 06:00:50;;;;;;;12.85;4.20;;;;;;;24.26;41.93;101143.22;5043499;28;20712;-70
2022/05/16 06:03:18;;;;;;;13.30;3.72;;;;;;;24.30;41.54;101141.13;5043385;28;20048;-69
2022/05/16 06:05:46;;;;;;;8.60;3.90;;;;;;;23.75;41.51;101133.94;5036423;28;20503;-71
2022/05/16 06:08:13;;;;;;;8.70;3.67;;;;;;;23.20;42.89;101145.47;5035563;28;20089;-70
2022/05/16 06:10:41;;;;;;;18.10;3.97;;;;;;;23.00;43.05;101140.78;5042296;28;20100;-69
2022/05/16 06:13:09;;;;;;;7.18;3.38;;;;;;;22.91;43.19;101139.66;5045338;28;20049;-69
2022/05/16 06:15:36;;;;;;;7.60;3.40;;;;;;;22.69;43.41;101138.63;5048892;28;20124;-69
2022/05/16 06:18:04;;;;;;;13.93;3.47;;;;;;;22.56;43.80;101146.78;5037647;28;20073;-69
2022/05/16 06:20:31;;;;;;;8.32;3.05;;;;;;;22.54;44.34;101137.97;5048463;28;20578;-69
2022/05/16 06:23:04;;;;;;;8.57;2.80;;;;;;;22.43;44.35;101130.75;5033011;28;20065;-69
2022/05/16 06:25:42;;;;;;;7.32;2.60;;;;;;;22.28;44.62;101134.59;5040493;28;20050;-68
2022/05/16 06:28:20;;;;;;;4.68;2.47;;;;;;;;;;5037119;28;20146;-69
2022/05/16 06:30:53;;;;;;;7.13;2.70;;;;;;;21.98;44.97;101147.50;5048720;28;20037;-69
2022/05/16 06:33:25;;;;;;;6.40;2.63;;;;;;;21.83;44.92;101152.16;5034010;28;20069;-69
2022/05/16 06:35:53;;;;;;;9.48;2.90;;;;;;;21.66;45.65;101169.47;5040653;28;20439;-68
2022/05/16 06:38:33;;;;;;;13.88;3.10;;;;;;;21.50;45.54;101187.63;5038081;28;20038;-68
2022/05/16 06:41:00;;;;;;;7.25;2.70;;;;;;;21.31;46.10;101188.94;5041077;28;20072;-69
2022/05/16 06:43:29;;;;;;;8.73;3.15;;;;;;;21.12;46.29;101183.09;5036579;28;20046;-68
2022/05/16 06:45:58;;;;;;;27.05;4.07;;;;;;;20.95;46.85;101190.50;5032862;28;20133;-69
2022/05/16 06:48:26;;;;;;;12.93;2.92;;;;;;;20.84;46.98;101195.75;5033563;28;20795;-68
2022/05/16 06:50:54;;;;;;;9.20;2.90;;;;;;;20.75;47.24;101190.06;5033159;28;20132;-68
2022/05/16 06:53:30;;;;;;;9.45;2.97;;;;;;;20.78;47.58;101199.69;5046419;28;20112;-68
2022/05/16 06:55:58;;;;;;;11.45;2.80;;;;;;;20.79;48.23;101207.66;5032032;28;20505;-67
2022/05/16 06:58:27;;;;;;;9.38;2.72;;;;;;;20.82;48.04;101208.38;5045505;28;20045;-69
2022/05/16 07:00:55;;;;;;;10.90;3.20;;;;;;;20.78;48.02;101211.28;5042192;28;20608;-69
2022/05/16 07:03:23;;;;;;;8.98;2.58;;;;;;;20.70;48.27;101210.03;5033355;28;20096;-69
2022/05/16 07:05:51;;;;;;;6.97;2.70;;;;;;;20.59;48.68;101210.78;5043381;28;20041;-68
2022/05/16 07:08:21;;;;;;;7.25;2.63;;;;;;;20.45;49.02;101206.34;5035059;28;20104;-67
2022/05/16 07:10:50;;;;;;;8.25;2.92;;;;;;;20.32;49.77;101211.63;5032242;28;20789;-69
2022/05/16 07:13:25;;;;;;;6.93;2.80;;;;;;;20.20;49.98;101213.31;5041304;28;20038;-70
2022/05/16 07:15:54;;;;;;;10.35;3.35;;;;;;;20.14;50.06;101225.25;5038668;28;20038;-68
2022/05/16 07:18:23;;;;;;;10.82;3.22;;;;;;;20.12;50.47;101216.47;5031630;28;20053;-69
2022/05/16 07:20:51;;;;;;;14.88;3.80;;;;;;;20.19;51.02;101218.75;5047657;28;20104;-70
2022/05/16 07:23:18;;;;;;;7.97;3.20;;;;;;;20.29;50.80;101228.75;5031705;28;20061;-70
2022/05/16 07:28:56;;;;;;;7.03;2.92;;;;;;;20.66;51.03;101240.66;5059391;28;20080;-68
2022/05/16 07:31:24;;;;;;;6.68;3.10;;;;;;;20.81;50.60;101236.16;5034946;28;20498;-69
2022/05/16 07:33:52;;;;;;;11.10;2.88;;;;;;;20.96;50.52;101236.94;5039085;28;20466;-70
2022/05/16 07:36:19;;;;;;;10.25;3.17;;;;;;;21.07;50.44;101237.91;5031590;28;20476;-68
2022/05/16 07:38:46;;;;;;;9.23;2.88;;;;;;;21.22;49.52;101240.47;5036829;28;20435;-70
2022/05/16 07:41:13;;;;;;;6.25;2.67;;;;;;;21.31;49.27;101245.22;5032560;28;20504;-66
2022/05/16 07:43:40;;;;;;;4.68;2.60;;;;;;;21.41;48.93;101240.06;5048095;28;20068;-70
2022/05/16 07:46:09;;;;;;;9.80;2.78;;;;;;;21.51;49.02;101241.13;5041522;28;20069;-71
2022/05/16 07:48:38;;;;;;;9.07;3.03;;;;;;;21.59;48.76;101245.13;5051403;28;20123;-69
2022/05/16 07:51:06;;;;;;;7.43;3.03;;;;;;;21.65;48.85;101240.19;5035330;28;20042;-70
2022/05/16 07:53:36;;;;;;;7.20;3.15;;;;;;;21.71;48.58;101244.25;5040969;28;20045;-70
2022/05/16 07:56:03;;;;;;;7.28;2.70;;;;;;;21.74;48.75;101244.06;5029242;28;20081;-70
2022/05/16 07:58:31;;;;;;;10.45;2.55;;;;;;;21.75;48.43;101243.09;5030059;28;20126;-70
2022/05/16 08:00:59;;;;;;;13.10;3.10;;;;;;;21.72;48.54;101260.25;5030310;28;20133;-70
2022/05/16 08:03:28;;;;;;;7.05;2.90;;;;;;;21.71;48.70;101263.91;5037441;28;20050;-69
2022/05/16 08:05:57;;;;;;;9.07;2.83;;;;;;;21.71;48.83;101261.22;5048398;28;20504;-70
2022/05/16 08:11:12;;;;;;;7.18;3.00;;;;;;;21.74;48.15;101259.28;5040137;28;20552;-69
2022/05/16 08:13:41;;;;;;;5.55;2.60;;;;;;;21.75;48.11;101256.50;5038279;28;20520;-70
2022/05/16 08:16:11;;;;;;;7.22;2.60;;;;;;;21.74;48.10;101254.78;5047540;28;20095;-70
2022/05/16 08:18:41;;;;;;;7.68;2.92;;;;;;;21.75;48.19;101259.19;5045960;28;20056;-70
2022/05/16 08:21:10;;;;;;;6.18;2.83;;;;;;;21.78;48.54;101260.78;5042203;28;20131;-70
2022/05/16 08:23:39;;;;;;;6.30;2.20;;;;;;;21.84;48.79;101268.38;5038025;28;20458;-68
2022/05/16 08:26:06;;;;;;;9.07;2.90;;;;;;;21.88;48.41;101265.38;5046424;28;20042;-69
2022/05/16 08:28:36;;;;;;;10.70;3.20;;;;;;;21.95;48.28;101268.47;5045522;28;20069;-70
2022/05/16 08:31:03;;;;;;;6.95;2.67;;;;;;;22.08;48.56;101267.59;5044492;28;20346;-70
2022/05/16 08:33:33;;;;;;;7.95;3.33;;;;;;;22.25;48.15;101272.59;5042269;28;22031;-70
2022/05/16 08:42:05;;;;;;;9.52;2.88;;;;;;;22.92;47.11;101291.88;5044747;28;20041;-71
2022/05/16 08:44:49;;;;;;;5.75;2.85;;;;;;;23.01;46.87;101293.88;5040880;28;20134;-71
2022/05/16 08:47:49;;;;;;;10.65;3.50;;;;;;;23.05;47.20;101294.50;5050324;28;20411;-70
2022/05/16 08:50:41;;;;;;;11.93;3.63;;;;;;;23.04;47.35;101290.97;5044775;28;20041;-70
2022/05/16 08:53:41;;;;;;;13.45;3.88;;;;;;;22.94;47.34;101285.41;5037432;28;20065;-70
2022/05/16 08:56:16;;;;;;;10.98;4.13;;;;;;;22.83;47.43;101293.47;5040950;28;20120;-70
2022/05/16 08:58:59;;;;;;;13.00;4.13;;;;;;;22.87;47.39;101289.56;5040250;28;20129;-69
2022/05/16 09:01:40;;;;;;;9.00;4.28;;;;;;;22.96;47.48;101286.16;5033957;28;20041;-71
2022/05/16 09:04:18;;;;;;;9.73;3.70;;;;;;;23.06;47.38;101278.28;5041535;28;20803;-70
2022/05/16 09:06:56;;;;;;;11.25;4.55;;;;;;;23.20;47.04;101287.13;5041096;28;20046;-71
2022/05/16 09:10:08;;;;;;;9.20;4.32;;;;;;;23.24;46.93;101284.09;5038734;28;20049;-69
2022/05/16 09:13:15;;;;;;;10.32;4.30;;;;;;;23.26;47.11;101282.13;5043152;28;20037;-69
2022/05/16 09:16:09;;;;;;;8.80;4.60;;;;;;;23.25;46.99;101288.47;5034203;28;20144;-70
2022/05/16 09:18:52;;;;;;;13.40;4.63;;;;;;;23.27;47.43;101280.31;5045386;28;20499;-70
2022/05/16 09:21:44;;;;;;;11.07;4.70;;;;;;;23.29;47.46;101281.06;5035833;28;20042;-70
2022/05/16 09:24:25;;;;;;;10.57;4.68;;;;;;;23.70;46.96;101290.41;5040394;28;20532;-70
2022/05/16 09:27:05;;;;;;;13.15;4.40;;;;;;;24.29;46.15;101280.34;5043531;28;20045;-70
2022/05/16 09:29:45;;;;;;;20.63;5.55;;;;;;;24.95;45.07;101284.81;5048353;28;20117;-70
2022/05/16 09:32:38;;;;;;;20.45;5.10;;;;;;;25.16;44.20;101283.13;5033310;28;20523;-70
2022/05/16 09:35:26;;;;;;;18.73;5.15;;;;;;;25.18;44.49;101289.25;5033543;28;20100;-71
2022/05/16 09:37:57;;;;;;;14.18;4.55;;;;;;;25.25;44.40;101283.16;5034260;28;20534;-70
2022/05/16 09:40:34;;;;;;;12.23;4.90;;;;;;;25.27;43.76;101283.91;5034515;28;20104;-71
2022/05/16 09:43:20;;;;;;;11.60;4.60;;;;;;;25.46;43.27;101281.50;5040657;28;20038;-71
2022/05/16 09:46:23;;;;;;;12.57;4.93;;;;;;;25.51;43.49;101280.09;5043954;28;20044;-70
2022/05/16 09:49:23;;;;;;;8.25;4.75;;;;;;;25.61;43.80;101279.28;5028617;28;20541;-69
2022/05/16 09:51:57;;;;;;;12.95;4.15;;;;;;;25.69;43.54;101279.47;5035929;28;20067;-71
2022/05/16 09:54:37;;;;;;;10.27;4.78;;;;;;;25.81;43.28;101286.50;5039311;28;20048;-70
2022/05/16 09:57:20;;;;;;;9.90;4.90;;;;;;;26.40;42.36;101277.75;5039661;28;20049;-70
2022/05/16 09:59:52;;;;;;;9.95;4.68;;;;;;;26.81;40.92;101273.09;5039156;28;20050;-71
2022/05/16 10:02:34;;;;;;;14.10;5.00;;;;;;;26.60;41.48;101279.47;5056636;28;20041;-69
2022/05/16 10:05:25;;;;;;;13.55;5.30;;;;;;;26.39;41.93;101282.28;5031110;28;20041;-70
2022/05/16 10:08:14;;;;;;;9.15;5.38;;;;;;;26.50;41.87;101279.44;5041305;28;20046;-70
2022/05/16 10:10:43;;;;;;;8.93;5.25;;;;;;;27.03;41.27;101284.59;5043353;28;20048;-70
2022/05/16 10:13:17;;;;;;;8.95;5.00;;;;;;;27.31;40.69;101290.97;5045749;28;20033;-71
2022/05/16 10:15:50;;;;;;;10.15;5.00;;;;;;;27.85;39.81;101288.53;5039220;28;20057;-70
2022/05/16 10:18:22;;;;;;;14.18;5.10;;;;;;;28.36;39.55;101288.16;5044225;28;20046;-71
2022/05/16 10:20:59;;;;;;;9.13;5.53;;;;;;;28.81;37.90;101287.28;5045273;28;20123;-71
2022/05/16 10:23:34;;;;;;;9.02;5.10;;;;;;;28.85;38.15;101290.53;5050163;28;20062;-70
2022/05/16 10:26:09;;;;;;;10.63;5.45;;;;;;;28.94;37.89;101286.88;5038979;28;20046;-71
2022/05/16 10:28:43;;;;;;;13.57;5.55;;;;;;;28.91;37.89;101287.19;5034077;28;20081;-71
2022/05/16 10:34:19;;;;;;;11.57;4.85;;;;;;;29.16;37.41;101298.25;5051155;28;20499;-70
2022/05/16 10:36:53;;;;;;;22.00;4.82;;;;;;;29.39;36.45;101301.31;5052149;28;20041;-71
2022/05/16 10:39:27;;;;;;;10.95;4.20;;;;;;;29.48;37.13;101310.38;5051055;28;20065;-71
2022/05/16 10:42:12;;;;;;;20.17;6.03;;;;;;;29.58;36.28;101319.28;5050827;28;20052;-70
2022/05/16 10:45:18;;;;;;;12.73;4.57;;;;;;;29.54;35.80;101306.19;5047498;28;20049;-72
2022/05/16 10:48:05;;;;;;;9.00;4.70;;;;;;;29.51;35.76;101307.34;5028907;28;20058;-70
2022/05/16 10:50:57;;;;;;;12.77;4.60;;;;;;;29.42;35.76;101302.88;5051124;28;20038;-70
2022/05/16 10:53:55;;;;;;;18.70;4.50;;;;;;;29.42;36.78;101301.03;5032844;28;20069;-70
2022/05/16 10:56:48;;;;;;;13.10;4.03;;;;;;;29.39;36.36;101304.03;5037007;28;20045;-70
2022/05/16 11:00:09;;;;;;;7.47;4.30;;;;;;;29.19;36.87;101310.66;5028087;28;20061;-68
2022/05/16 11:02:58;;;;;;;16.35;4.70;;;;;;;28.89;37.50;101300.09;5008202;28;20630;-71
2022/05/16 11:06:26;;;;;;;8.60;4.20;;;;;;;28.49;37.86;101304.91;5032121;28;20050;-70
2022/05/16 11:09:02;;;;;;;7.82;4.15;;;;;;;28.08;38.52;101295.47;4989552;28;20050;-70
2022/05/16 11:11:37;;;;;;;12.10;4.90;;;;;;;28.03;38.95;101290.47;5041085;28;20130;-70
2022/05/16 11:14:22;;;;;;;9.10;3.90;;;;;;;27.83;39.38;101298.66;5033747;28;20209;-71
2022/05/16 11:17:01;;;;;;;6.18;3.88;;;;;;;27.60;40.38;101292.78;5048747;28;20049;-70
2022/05/16 11:19:53;;;;;;;8.93;3.63;;;;;;;27.37;40.91;101298.50;5046446;28;20507;-70
2022/05/16 11:22:29;;;;;;;7.47;3.75;;;;;;;26.95;40.64;101301.56;5053669;28;20089;-70
2022/05/16 11:25:12;;;;;;;15.65;3.70;;;;;;;26.57;41.77;101332.94;5047393;28;20042;-71
2022/05/16 11:28:11;;;;;;;58.20;5.47;;;;;;;26.14;45.57;101346.66;5039966;28;20034;-69
2022/05/16 11:30:55;;;;;;;21.23;3.80;;;;;;;25.72;47.54;101361.03;5035701;28;20045;-69
2022/05/16 11:33:36;;;;;;;22.05;3.33;;;;;;;25.33;50.12;101374.25;5030083;28;20034;-71
2022/05/16 11:36:17;;;;;;;11.27;3.40;;;;;;;24.74;55.18;101394.44;5044713;28;20072;-70
2022/05/16 11:39:05;;;;;;;15.43;3.75;;;;;;;24.19;55.95;101400.59;5046407;28;20077;-70
2022/05/16 11:41:48;;;;;;;10.02;3.90;;;;;;;23.31;60.42;101393.91;5032342;28;20038;-70
2022/05/16 11:44:31;;;;;;;7.70;4.07;;;;;;;22.55;63.00;101392.22;5030214;28;20041;-69
2022/05/16 11:47:08;;;;;;;12.45;5.22;;;;;;;22.27;64.66;101377.22;5039425;28;20085;-67
2022/05/16 11:50:36;;;;;;;8.25;4.45;;;;;;;22.40;64.70;101366.44;5036249;28;20525;-68
2022/05/16 11:53:50;;;;;;;8.05;5.30;;;;;;;22.82;66.52;101371.50;5041746;28;20104;-69
2022/05/16 12:02:18;;;;;;;;;;;;;;;23.44;63.02;101377.66;5043133;28;20041;-69
2022/05/16 12:05:11;;;;;;;9.77;5.15;;;;;;;23.50;62.44;101391.50;5035021;28;20032;-68
2022/05/16 12:07:45;;;;;;;10.25;5.35;;;;;;;23.51;60.24;101395.03;5045485;28;20054;-67
2022/05/16 12:10:22;;;;;;;7.85;6.07;;;;;;;23.55;61.24;101393.84;5044335;28;20068;-67
2022/05/16 12:13:32;;;;;;;12.02;6.00;;;;;;;23.86;59.52;101395.00;5037947;28;20045;-68
2022/05/16 12:16:13;;;;;;;11.02;5.70;;;;;;;24.26;59.19;101388.34;5046445;28;20112;-69
2022/05/16 12:18:48;;;;;;;10.30;5.43;;;;;;;24.40;56.57;101386.38;5039663;28;20038;-68
2022/05/16 12:21:18;;;;;;;10.32;5.57;;;;;;;24.34;58.56;101398.50;5037142;28;20073;-68
2022/05/16 12:23:47;;;;;;;11.57;5.60;;;;;;;24.18;58.40;101394.34;5035656;28;20054;-68
2022/05/16 12:26:26;;;;;;;8.18;5.05;;;;;;;23.96;57.75;101402.41;5048485;28;20096;-68
2022/05/16 12:29:08;;;;;;;7.93;4.88;;;;;;;23.47;56.18;101401.66;5038880;28;20076;-68
2022/05/16 12:31:44;;;;;;;8.98;5.28;;;;;;;23.04;56.83;101400.34;5053297;28;20045;-69